sensor_id;sensor_type;location;lat;lon;timestamp;temperature;humidity
49373;DHT22;44113;38.408;-122.974;2022-11-18T00:01:46;31.90;36.30
49373;DHT22;44113;38.408;-122.974;2022-11-18T00:04:13;31.90;36.50
49373;DHT22;44113;38.408;-122.974;2022-11-18T00:06:39;31.90;36.50
49373;DHT22;44113;38.408;-122.974;2022-11-18T00:09:05;31.80;36.50
49373;DHT22;44113;38.408;-122.974;2022-11-18T00:11:32;31.80;36.50
49373;DHT22;44113;38.408;-122.974;2022-11-18T00:14:20;31.80;36.50
49373;DHT22;44113;38.408;-122.974;2022-11-18T00:17:01;31.70;36.40
49373;DHT22;44113;38.408;-122.974;2022-11-18T00:19:33;31.70;36.60
49373;DHT22;44113;38.408;-122.974;2022-11-18T00:22:01;31.60;36.50
49373;DHT22;44113;38.408;-122.974;2022-11-18T00:24:28;31.50;36.40
49373;DHT22;44113;38.408;-122.974;2022-11-18T00:26:55;31.50;36.30
49373;DHT22;44113;38.408;-122.974;2022-11-18T00:29:23;31.40;36.30
49373;DHT22;44113;38.408;-122.974;2022-11-18T00:31:54;31.30;36.40
49373;DHT22;44113;38.408;-122.974;2022-11-18T00:34:24;31.30;36.50
49373;DHT22;44113;38.408;-122.974;2022-11-18T00:36:51;31.20;36.40
49373;DHT22;44113;38.408;-122.974;2022-11-18T00:39:18;31.20;36.60
49373;DHT22;44113;38.408;-122.974;2022-11-18T00:41:47;31.00;36.50
49373;DHT22;44113;38.408;-122.974;2022-11-18T00:44:32;31.10;36.60
49373;DHT22;44113;38.408;-122.974;2022-11-18T00:46:59;31.00;36.80
49373;DHT22;44113;38.408;-122.974;2022-11-18T00:49:26;30.90;36.60
49373;DHT22;44113;38.408;-122.974;2022-11-18T00:51:52;30.90;36.70
49373;DHT22;44113;38.408;-122.974;2022-11-18T00:54:20;30.80;36.70
49373;DHT22;44113;38.408;-122.974;2022-11-18T00:56:46;30.80;36.70
49373;DHT22;44113;38.408;-122.974;2022-11-18T00:59:13;30.70;36.80
49373;DHT22;44113;38.408;-122.974;2022-11-18T01:01:40;30.60;36.70
49373;DHT22;44113;38.408;-122.974;2022-11-18T01:04:07;30.60;36.90
49373;DHT22;44113;38.408;-122.974;2022-11-18T01:06:33;30.50;36.90
49373;DHT22;44113;38.408;-122.974;2022-11-18T01:09:00;30.50;36.90
49373;DHT22;44113;38.408;-122.974;2022-11-18T01:11:26;30.40;37.00
49373;DHT22;44113;38.408;-122.974;2022-11-18T01:14:11;30.30;37.00
49373;DHT22;44113;38.408;-122.974;2022-11-18T01:16:38;30.30;37.10
49373;DHT22;44113;38.408;-122.974;2022-11-18T01:19:04;30.20;37.00
49373;DHT22;44113;38.408;-122.974;2022-11-18T01:21:31;30.20;37.10
49373;DHT22;44113;38.408;-122.974;2022-11-18T01:23:58;30.10;37.10
49373;DHT22;44113;38.408;-122.974;2022-11-18T01:26:25;30.10;37.10
49373;DHT22;44113;38.408;-122.974;2022-11-18T01:28:56;30.00;37.10
49373;DHT22;44113;38.408;-122.974;2022-11-18T01:31:22;29.90;37.20
49373;DHT22;44113;38.408;-122.974;2022-11-18T01:33:49;29.80;37.20
49373;DHT22;44113;38.408;-122.974;2022-11-18T01:36:21;29.80;37.70
49373;DHT22;44113;38.408;-122.974;2022-11-18T01:38:50;29.70;38.00
49373;DHT22;44113;38.408;-122.974;2022-11-18T01:41:22;29.70;38.00
49373;DHT22;44113;38.408;-122.974;2022-11-18T01:43:53;29.60;37.90
49373;DHT22;44113;38.408;-122.974;2022-11-18T01:46:22;29.60;38.00
49373;DHT22;44113;38.408;-122.974;2022-11-18T01:49:08;29.50;38.00
49373;DHT22;44113;38.408;-122.974;2022-11-18T01:51:42;29.50;38.00
49373;DHT22;44113;38.408;-122.974;2022-11-18T01:54:23;29.40;37.90
49373;DHT22;44113;38.408;-122.974;2022-11-18T01:56:53;29.30;38.10
49373;DHT22;44113;38.408;-122.974;2022-11-18T01:59:24;29.30;38.10
49373;DHT22;44113;38.408;-122.974;2022-11-18T02:01:53;29.20;38.10
49373;DHT22;44113;38.408;-122.974;2022-11-18T02:04:20;29.10;38.10
49373;DHT22;44113;38.408;-122.974;2022-11-18T02:06:48;29.10;38.20
49373;DHT22;44113;38.408;-122.974;2022-11-18T02:09:16;29.10;38.30
49373;DHT22;44113;38.408;-122.974;2022-11-18T02:11:43;29.00;38.20
49373;DHT22;44113;38.408;-122.974;2022-11-18T02:14:42;29.00;38.30
49373;DHT22;44113;38.408;-122.974;2022-11-18T02:17:37;29.00;38.40
49373;DHT22;44113;38.408;-122.974;2022-11-18T02:20:39;28.90;38.40
49373;DHT22;44113;38.408;-122.974;2022-11-18T02:25:46;28.90;38.30
49373;DHT22;44113;38.408;-122.974;2022-11-18T02:31:25;28.80;38.40
49373;DHT22;44113;38.408;-122.974;2022-11-18T02:34:05;28.70;38.50
49373;DHT22;44113;38.408;-122.974;2022-11-18T02:39:19;28.60;38.60
49373;DHT22;44113;38.408;-122.974;2022-11-18T02:41:48;28.50;38.60
49373;DHT22;44113;38.408;-122.974;2022-11-18T02:44:16;28.50;38.70
49373;DHT22;44113;38.408;-122.974;2022-11-18T02:46:50;28.50;38.80
49373;DHT22;44113;38.408;-122.974;2022-11-18T02:49:27;28.50;38.90
49373;DHT22;44113;38.408;-122.974;2022-11-18T02:51:55;28.40;38.80
49373;DHT22;44113;38.408;-122.974;2022-11-18T02:54:22;28.40;38.70
49373;DHT22;44113;38.408;-122.974;2022-11-18T02:56:52;28.40;38.70
49373;DHT22;44113;38.408;-122.974;2022-11-18T02:59:19;28.40;38.70
49373;DHT22;44113;38.408;-122.974;2022-11-18T03:01:46;28.30;38.70
49373;DHT22;44113;38.408;-122.974;2022-11-18T03:04:14;28.30;38.80
49373;DHT22;44113;38.408;-122.974;2022-11-18T03:06:48;28.30;38.90
49373;DHT22;44113;38.408;-122.974;2022-11-18T03:09:23;28.20;38.70
49373;DHT22;44113;38.408;-122.974;2022-11-18T03:15:00;28.20;38.90
49373;DHT22;44113;38.408;-122.974;2022-11-18T03:17:44;28.10;38.90
49373;DHT22;44113;38.408;-122.974;2022-11-18T03:20:24;28.10;39.00
49373;DHT22;44113;38.408;-122.974;2022-11-18T03:23:13;28.10;39.00
49373;DHT22;44113;38.408;-122.974;2022-11-18T03:26:17;28.00;38.90
49373;DHT22;44113;38.408;-122.974;2022-11-18T03:31:42;28.00;38.90
49373;DHT22;44113;38.408;-122.974;2022-11-18T03:34:30;27.90;39.00
49373;DHT22;44113;38.408;-122.974;2022-11-18T03:37:01;27.90;39.70
49373;DHT22;44113;38.408;-122.974;2022-11-18T03:39:31;27.80;39.20
49373;DHT22;44113;38.408;-122.974;2022-11-18T03:42:30;27.80;39.20
49373;DHT22;44113;38.408;-122.974;2022-11-18T03:45:06;27.70;39.20
49373;DHT22;44113;38.408;-122.974;2022-11-18T03:47:40;27.70;38.90
49373;DHT22;44113;38.408;-122.974;2022-11-18T03:50:22;27.70;38.90
49373;DHT22;44113;38.408;-122.974;2022-11-18T03:52:52;27.60;39.00
49373;DHT22;44113;38.408;-122.974;2022-11-18T03:55:26;27.60;38.90
49373;DHT22;44113;38.408;-122.974;2022-11-18T03:58:17;27.50;38.80
49373;DHT22;44113;38.408;-122.974;2022-11-18T04:00:49;27.50;39.00
49373;DHT22;44113;38.408;-122.974;2022-11-18T04:03:17;27.50;39.10
49373;DHT22;44113;38.408;-122.974;2022-11-18T04:05:44;27.40;39.10
49373;DHT22;44113;38.408;-122.974;2022-11-18T04:08:20;27.30;39.10
49373;DHT22;44113;38.408;-122.974;2022-11-18T04:11:32;27.30;39.20
49373;DHT22;44113;38.408;-122.974;2022-11-18T04:14:00;27.30;39.30
49373;DHT22;44113;38.408;-122.974;2022-11-18T04:16:27;27.20;39.30
49373;DHT22;44113;38.408;-122.974;2022-11-18T04:18:54;27.20;39.40
49373;DHT22;44113;38.408;-122.974;2022-11-18T04:21:20;27.10;39.30
49373;DHT22;44113;38.408;-122.974;2022-11-18T04:23:47;27.10;39.40
49373;DHT22;44113;38.408;-122.974;2022-11-18T04:26:13;27.10;39.50
49373;DHT22;44113;38.408;-122.974;2022-11-18T04:28:42;27.00;39.40
49373;DHT22;44113;38.408;-122.974;2022-11-18T04:31:08;27.00;39.40
49373;DHT22;44113;38.408;-122.974;2022-11-18T04:33:35;26.90;39.30
49373;DHT22;44113;38.408;-122.974;2022-11-18T04:36:01;26.90;39.40
49373;DHT22;44113;38.408;-122.974;2022-11-18T04:38:28;26.80;39.40
49373;DHT22;44113;38.408;-122.974;2022-11-18T04:40:54;26.80;39.50
49373;DHT22;44113;38.408;-122.974;2022-11-18T04:43:21;26.80;39.60
49373;DHT22;44113;38.408;-122.974;2022-11-18T04:45:47;26.70;39.60
49373;DHT22;44113;38.408;-122.974;2022-11-18T04:48:14;26.70;39.70
49373;DHT22;44113;38.408;-122.974;2022-11-18T04:50:41;26.70;39.70
49373;DHT22;44113;38.408;-122.974;2022-11-18T04:53:07;26.60;39.80
49373;DHT22;44113;38.408;-122.974;2022-11-18T04:55:37;26.60;39.80
49373;DHT22;44113;38.408;-122.974;2022-11-18T04:58:03;26.50;39.70
49373;DHT22;44113;38.408;-122.974;2022-11-18T05:00:30;26.50;39.80
49373;DHT22;44113;38.408;-122.974;2022-11-18T05:02:56;26.50;39.90
49373;DHT22;44113;38.408;-122.974;2022-11-18T05:05:23;26.40;39.80
49373;DHT22;44113;38.408;-122.974;2022-11-18T05:07:50;26.40;39.90
49373;DHT22;44113;38.408;-122.974;2022-11-18T05:10:16;26.30;39.90
49373;DHT22;44113;38.408;-122.974;2022-11-18T05:12:43;26.30;39.90
49373;DHT22;44113;38.408;-122.974;2022-11-18T05:15:20;26.20;39.70
49373;DHT22;44113;38.408;-122.974;2022-11-18T05:17:47;26.20;39.80
49373;DHT22;44113;38.408;-122.974;2022-11-18T05:20:13;26.20;40.00
49373;DHT22;44113;38.408;-122.974;2022-11-18T05:22:40;26.10;39.80
49373;DHT22;44113;38.408;-122.974;2022-11-18T05:25:07;26.10;40.00
49373;DHT22;44113;38.408;-122.974;2022-11-18T05:27:34;26.00;39.90
49373;DHT22;44113;38.408;-122.974;2022-11-18T05:30:00;25.90;40.00
49373;DHT22;44113;38.408;-122.974;2022-11-18T05:32:27;25.90;39.90
49373;DHT22;44113;38.408;-122.974;2022-11-18T05:34:53;25.90;39.70
49373;DHT22;44113;38.408;-122.974;2022-11-18T05:37:20;25.80;39.80
49373;DHT22;44113;38.408;-122.974;2022-11-18T05:39:46;25.80;39.70
49373;DHT22;44113;38.408;-122.974;2022-11-18T05:42:12;25.70;39.90
49373;DHT22;44113;38.408;-122.974;2022-11-18T05:44:57;25.70;40.20
49373;DHT22;44113;38.408;-122.974;2022-11-18T05:47:23;25.60;40.40
49373;DHT22;44113;38.408;-122.974;2022-11-18T05:49:50;25.60;40.50
49373;DHT22;44113;38.408;-122.974;2022-11-18T05:52:17;25.60;40.60
49373;DHT22;44113;38.408;-122.974;2022-11-18T05:54:49;25.60;40.70
49373;DHT22;44113;38.408;-122.974;2022-11-18T05:57:16;25.50;40.80
49373;DHT22;44113;38.408;-122.974;2022-11-18T05:59:42;25.50;40.90
49373;DHT22;44113;38.408;-122.974;2022-11-18T06:02:18;25.50;40.70
49373;DHT22;44113;38.408;-122.974;2022-11-18T06:05:04;25.50;40.60
49373;DHT22;44113;38.408;-122.974;2022-11-18T06:07:43;25.40;40.60
49373;DHT22;44113;38.408;-122.974;2022-11-18T06:10:15;25.40;40.60
49373;DHT22;44113;38.408;-122.974;2022-11-18T06:12:45;25.40;40.50
49373;DHT22;44113;38.408;-122.974;2022-11-18T06:15:17;25.40;40.40
49373;DHT22;44113;38.408;-122.974;2022-11-18T06:17:55;25.40;40.50
49373;DHT22;44113;38.408;-122.974;2022-11-18T06:20:24;25.30;40.30
49373;DHT22;44113;38.408;-122.974;2022-11-18T06:22:54;25.30;40.60
49373;DHT22;44113;38.408;-122.974;2022-11-18T06:25:22;25.20;40.80
49373;DHT22;44113;38.408;-122.974;2022-11-18T06:27:51;25.20;40.90
49373;DHT22;44113;38.408;-122.974;2022-11-18T06:30:19;25.20;41.10
49373;DHT22;44113;38.408;-122.974;2022-11-18T06:32:45;25.10;41.10
49373;DHT22;44113;38.408;-122.974;2022-11-18T06:35:12;25.10;41.20
49373;DHT22;44113;38.408;-122.974;2022-11-18T06:37:38;25.10;41.10
49373;DHT22;44113;38.408;-122.974;2022-11-18T06:40:06;25.10;41.30
49373;DHT22;44113;38.408;-122.974;2022-11-18T06:42:33;25.00;41.20
49373;DHT22;44113;38.408;-122.974;2022-11-18T06:45:18;25.00;41.30
49373;DHT22;44113;38.408;-122.974;2022-11-18T06:47:45;25.00;41.30
49373;DHT22;44113;38.408;-122.974;2022-11-18T06:50:12;24.90;41.40
49373;DHT22;44113;38.408;-122.974;2022-11-18T06:52:39;24.90;41.40
49373;DHT22;44113;38.408;-122.974;2022-11-18T06:55:06;24.90;41.50
49373;DHT22;44113;38.408;-122.974;2022-11-18T06:57:33;24.80;41.50
49373;DHT22;44113;38.408;-122.974;2022-11-18T07:00:01;24.80;41.50
49373;DHT22;44113;38.408;-122.974;2022-11-18T07:02:28;24.80;41.60
49373;DHT22;44113;38.408;-122.974;2022-11-18T07:04:56;24.70;41.50
49373;DHT22;44113;38.408;-122.974;2022-11-18T07:07:22;24.70;41.40
49373;DHT22;44113;38.408;-122.974;2022-11-18T07:09:50;24.70;41.20
49373;DHT22;44113;38.408;-122.974;2022-11-18T07:12:16;24.70;41.80
49373;DHT22;44113;38.408;-122.974;2022-11-18T07:14:43;24.60;41.00
49373;DHT22;44113;38.408;-122.974;2022-11-18T07:17:09;24.60;41.20
49373;DHT22;44113;38.408;-122.974;2022-11-18T07:19:38;24.60;41.20
49373;DHT22;44113;38.408;-122.974;2022-11-18T07:22:05;24.60;41.60
49373;DHT22;44113;38.408;-122.974;2022-11-18T07:24:33;24.60;41.60
49373;DHT22;44113;38.408;-122.974;2022-11-18T07:27:00;24.50;41.80
49373;DHT22;44113;38.408;-122.974;2022-11-18T07:29:26;24.40;41.90
49373;DHT22;44113;38.408;-122.974;2022-11-18T07:31:53;24.40;42.00
49373;DHT22;44113;38.408;-122.974;2022-11-18T07:34:21;24.40;42.00
49373;DHT22;44113;38.408;-122.974;2022-11-18T07:36:48;24.40;42.10
49373;DHT22;44113;38.408;-122.974;2022-11-18T07:39:14;24.30;42.10
49373;DHT22;44113;38.408;-122.974;2022-11-18T07:41:41;24.30;41.90
49373;DHT22;44113;38.408;-122.974;2022-11-18T07:44:11;24.30;41.60
49373;DHT22;44113;38.408;-122.974;2022-11-18T07:46:38;24.30;41.40
49373;DHT22;44113;38.408;-122.974;2022-11-18T07:49:06;24.20;41.40
49373;DHT22;44113;38.408;-122.974;2022-11-18T07:51:35;24.20;41.40
49373;DHT22;44113;38.408;-122.974;2022-11-18T07:54:09;24.20;41.50
49373;DHT22;44113;38.408;-122.974;2022-11-18T07:56:37;24.10;41.70
49373;DHT22;44113;38.408;-122.974;2022-11-18T07:59:04;24.10;41.70
49373;DHT22;44113;38.408;-122.974;2022-11-18T08:01:31;24.10;42.30
49373;DHT22;44113;38.408;-122.974;2022-11-18T08:04:04;24.00;42.40
49373;DHT22;44113;38.408;-122.974;2022-11-18T08:06:31;24.00;42.30
49373;DHT22;44113;38.408;-122.974;2022-11-18T08:08:59;24.00;42.50
49373;DHT22;44113;38.408;-122.974;2022-11-18T08:11:26;23.90;42.40
49373;DHT22;44113;38.408;-122.974;2022-11-18T08:13:53;23.90;42.40
49373;DHT22;44113;38.408;-122.974;2022-11-18T08:16:22;23.90;42.30
49373;DHT22;44113;38.408;-122.974;2022-11-18T08:18:50;23.80;42.00
49373;DHT22;44113;38.408;-122.974;2022-11-18T08:21:18;23.80;42.20
49373;DHT22;44113;38.408;-122.974;2022-11-18T08:23:49;23.80;42.30
49373;DHT22;44113;38.408;-122.974;2022-11-18T08:26:16;23.70;42.60
49373;DHT22;44113;38.408;-122.974;2022-11-18T08:28:44;23.70;42.60
49373;DHT22;44113;38.408;-122.974;2022-11-18T08:31:12;23.70;42.60
49373;DHT22;44113;38.408;-122.974;2022-11-18T08:33:40;23.60;42.40
49373;DHT22;44113;38.408;-122.974;2022-11-18T08:36:18;23.60;42.70
49373;DHT22;44113;38.408;-122.974;2022-11-18T08:38:46;23.60;42.50
49373;DHT22;44113;38.408;-122.974;2022-11-18T08:41:22;23.50;42.70
49373;DHT22;44113;38.408;-122.974;2022-11-18T08:43:49;23.50;42.90
49373;DHT22;44113;38.408;-122.974;2022-11-18T08:46:16;23.50;42.90
49373;DHT22;44113;38.408;-122.974;2022-11-18T08:48:43;23.40;42.70
49373;DHT22;44113;38.408;-122.974;2022-11-18T08:51:12;23.40;43.00
49373;DHT22;44113;38.408;-122.974;2022-11-18T08:53:39;23.30;42.90
49373;DHT22;44113;38.408;-122.974;2022-11-18T08:56:06;23.30;43.10
49373;DHT22;44113;38.408;-122.974;2022-11-18T08:58:37;23.20;42.80
49373;DHT22;44113;38.408;-122.974;2022-11-18T09:01:05;23.20;42.90
49373;DHT22;44113;38.408;-122.974;2022-11-18T09:03:31;23.10;42.80
49373;DHT22;44113;38.408;-122.974;2022-11-18T09:06:27;23.10;42.90
49373;DHT22;44113;38.408;-122.974;2022-11-18T09:08:54;23.10;43.20
49373;DHT22;44113;38.408;-122.974;2022-11-18T09:11:22;23.00;43.10
49373;DHT22;44113;38.408;-122.974;2022-11-18T09:13:53;23.00;43.40
49373;DHT22;44113;38.408;-122.974;2022-11-18T09:16:27;23.00;43.40
49373;DHT22;44113;38.408;-122.974;2022-11-18T09:18:54;23.00;43.40
49373;DHT22;44113;38.408;-122.974;2022-11-18T09:21:22;22.90;43.30
49373;DHT22;44113;38.408;-122.974;2022-11-18T09:23:48;22.90;43.50
49373;DHT22;44113;38.408;-122.974;2022-11-18T09:26:17;22.80;43.50
49373;DHT22;44113;38.408;-122.974;2022-11-18T09:28:46;22.90;43.30
49373;DHT22;44113;38.408;-122.974;2022-11-18T09:31:15;22.80;43.10
49373;DHT22;44113;38.408;-122.974;2022-11-18T09:33:42;22.80;43.40
49373;DHT22;44113;38.408;-122.974;2022-11-18T09:36:14;22.70;43.20
49373;DHT22;44113;38.408;-122.974;2022-11-18T09:38:42;22.70;43.30
49373;DHT22;44113;38.408;-122.974;2022-11-18T09:46:28;22.70;43.30
49373;DHT22;44113;38.408;-122.974;2022-11-18T09:49:01;22.70;43.50
49373;DHT22;44113;38.408;-122.974;2022-11-18T09:51:42;22.60;43.60
49373;DHT22;44113;38.408;-122.974;2022-11-18T09:54:10;22.60;43.30
49373;DHT22;44113;38.408;-122.974;2022-11-18T09:56:39;22.50;43.60
49373;DHT22;44113;38.408;-122.974;2022-11-18T09:59:08;22.50;43.60
49373;DHT22;44113;38.408;-122.974;2022-11-18T10:01:36;22.50;43.50
49373;DHT22;44113;38.408;-122.974;2022-11-18T10:04:02;22.40;43.50
49373;DHT22;44113;38.408;-122.974;2022-11-18T10:06:31;22.50;43.50
49373;DHT22;44113;38.408;-122.974;2022-11-18T10:09:22;22.50;43.30
49373;DHT22;44113;38.408;-122.974;2022-11-18T10:25:40;22.30;44.50
49373;DHT22;44113;38.408;-122.974;2022-11-18T10:28:24;22.30;44.40
49373;DHT22;44113;38.408;-122.974;2022-11-18T10:30:51;22.30;44.20
49373;DHT22;44113;38.408;-122.974;2022-11-18T10:35:47;22.20;44.10
49373;DHT22;44113;38.408;-122.974;2022-11-18T10:46:27;22.10;44.70
49373;DHT22;44113;38.408;-122.974;2022-11-18T10:51:38;22.00;44.70
49373;DHT22;44113;38.408;-122.974;2022-11-18T10:54:21;22.00;44.70
49373;DHT22;44113;38.408;-122.974;2022-11-18T10:59:50;22.00;44.60
49373;DHT22;44113;38.408;-122.974;2022-11-18T11:02:18;21.90;44.50
49373;DHT22;44113;38.408;-122.974;2022-11-18T11:04:47;21.90;44.40
49373;DHT22;44113;38.408;-122.974;2022-11-18T11:07:34;21.80;44.30
49373;DHT22;44113;38.408;-122.974;2022-11-18T11:12:40;21.80;44.10
49373;DHT22;44113;38.408;-122.974;2022-11-18T11:15:17;21.80;44.60
49373;DHT22;44113;38.408;-122.974;2022-11-18T11:17:55;21.80;44.60
49373;DHT22;44113;38.408;-122.974;2022-11-18T11:20:42;21.70;44.70
49373;DHT22;44113;38.408;-122.974;2022-11-18T11:23:10;21.70;44.70
49373;DHT22;44113;38.408;-122.974;2022-11-18T11:25:56;21.70;44.70
49373;DHT22;44113;38.408;-122.974;2022-11-18T11:31:26;21.70;44.50
49373;DHT22;44113;38.408;-122.974;2022-11-18T11:45:23;21.50;44.40
49373;DHT22;44113;38.408;-122.974;2022-11-18T11:47:57;21.40;44.60
49373;DHT22;44113;38.408;-122.974;2022-11-18T11:53:51;21.50;44.80
49373;DHT22;44113;38.408;-122.974;2022-11-18T11:57:35;21.40;44.80
49373;DHT22;44113;38.408;-122.974;2022-11-18T11:59:45;21.40;44.90
49373;DHT22;44113;38.408;-122.974;2022-11-18T12:05:07;21.30;44.90
49373;DHT22;44113;38.408;-122.974;2022-11-18T12:08:08;21.20;45.00
49373;DHT22;44113;38.408;-122.974;2022-11-18T12:13:36;21.10;45.00
49373;DHT22;44113;38.408;-122.974;2022-11-18T12:18:53;21.00;45.10
49373;DHT22;44113;38.408;-122.974;2022-11-18T12:24:31;21.10;44.90
49373;DHT22;44113;38.408;-122.974;2022-11-18T12:34:57;21.00;44.80
49373;DHT22;44113;38.408;-122.974;2022-11-18T12:50:55;20.80;45.10
49373;DHT22;44113;38.408;-122.974;2022-11-18T12:53:50;20.80;45.20
49373;DHT22;44113;38.408;-122.974;2022-11-18T12:56:26;20.80;45.70
49373;DHT22;44113;38.408;-122.974;2022-11-18T12:58:55;20.80;45.10
49373;DHT22;44113;38.408;-122.974;2022-11-18T13:01:24;20.90;45.10
49373;DHT22;44113;38.408;-122.974;2022-11-18T13:03:52;20.80;44.80
49373;DHT22;44113;38.408;-122.974;2022-11-18T13:06:32;20.80;45.10
49373;DHT22;44113;38.408;-122.974;2022-11-18T13:09:04;20.70;44.90
49373;DHT22;44113;38.408;-122.974;2022-11-18T13:11:44;20.70;45.30
49373;DHT22;44113;38.408;-122.974;2022-11-18T13:14:17;20.60;45.00
49373;DHT22;44113;38.408;-122.974;2022-11-18T13:17:04;20.60;45.10
49373;DHT22;44113;38.408;-122.974;2022-11-18T13:22:56;20.50;45.30
49373;DHT22;44113;38.408;-122.974;2022-11-18T13:25:43;20.50;45.20
49373;DHT22;44113;38.408;-122.974;2022-11-18T13:31:14;20.60;45.20
49373;DHT22;44113;38.408;-122.974;2022-11-18T13:33:42;20.50;45.00
49373;DHT22;44113;38.408;-122.974;2022-11-18T13:36:24;20.50;45.10
49373;DHT22;44113;38.408;-122.974;2022-11-18T13:38:59;20.40;45.20
49373;DHT22;44113;38.408;-122.974;2022-11-18T13:41:28;20.50;45.20
49373;DHT22;44113;38.408;-122.974;2022-11-18T13:44:23;20.40;45.10
49373;DHT22;44113;38.408;-122.974;2022-11-18T13:46:59;20.40;45.30
49373;DHT22;44113;38.408;-122.974;2022-11-18T13:49:40;20.30;45.10
49373;DHT22;44113;38.408;-122.974;2022-11-18T13:52:22;20.30;45.40
49373;DHT22;44113;38.408;-122.974;2022-11-18T13:54:53;20.30;45.50
49373;DHT22;44113;38.408;-122.974;2022-11-18T13:57:23;20.30;45.20
49373;DHT22;44113;38.408;-122.974;2022-11-18T13:59:51;20.30;45.30
49373;DHT22;44113;38.408;-122.974;2022-11-18T14:02:22;20.30;45.30
49373;DHT22;44113;38.408;-122.974;2022-11-18T14:04:55;20.30;45.30
49373;DHT22;44113;38.408;-122.974;2022-11-18T14:07:23;20.30;45.20
49373;DHT22;44113;38.408;-122.974;2022-11-18T14:09:58;20.20;45.30
49373;DHT22;44113;38.408;-122.974;2022-11-18T14:12:28;20.20;45.40
49373;DHT22;44113;38.408;-122.974;2022-11-18T14:15:20;20.10;45.50
49373;DHT22;44113;38.408;-122.974;2022-11-18T14:17:55;20.10;45.60
49373;DHT22;44113;38.408;-122.974;2022-11-18T14:20:22;20.10;45.40
49373;DHT22;44113;38.408;-122.974;2022-11-18T14:22:57;20.00;45.50
49373;DHT22;44113;38.408;-122.974;2022-11-18T14:25:31;20.00;45.50
49373;DHT22;44113;38.408;-122.974;2022-11-18T14:28:25;20.10;45.40
49373;DHT22;44113;38.408;-122.974;2022-11-18T14:31:24;20.00;45.50
49373;DHT22;44113;38.408;-122.974;2022-11-18T14:34:24;20.00;45.40
49373;DHT22;44113;38.408;-122.974;2022-11-18T14:36:51;20.00;45.50
49373;DHT22;44113;38.408;-122.974;2022-11-18T14:39:27;20.00;45.50
49373;DHT22;44113;38.408;-122.974;2022-11-18T14:41:54;19.90;45.60
49373;DHT22;44113;38.408;-122.974;2022-11-18T14:44:23;19.90;45.60
49373;DHT22;44113;38.408;-122.974;2022-11-18T14:46:52;19.90;45.60
49373;DHT22;44113;38.408;-122.974;2022-11-18T14:49:23;19.90;45.70
49373;DHT22;44113;38.408;-122.974;2022-11-18T14:51:52;19.90;45.70
49373;DHT22;44113;38.408;-122.974;2022-11-18T14:54:21;19.80;45.70
49373;DHT22;44113;38.408;-122.974;2022-11-18T14:56:51;19.80;45.60
49373;DHT22;44113;38.408;-122.974;2022-11-18T14:59:19;19.80;45.60
49373;DHT22;44113;38.408;-122.974;2022-11-18T15:01:47;19.80;45.60
49373;DHT22;44113;38.408;-122.974;2022-11-18T15:04:14;19.80;45.60
49373;DHT22;44113;38.408;-122.974;2022-11-18T15:06:42;19.80;45.60
49373;DHT22;44113;38.408;-122.974;2022-11-18T15:09:10;19.80;45.50
49373;DHT22;44113;38.408;-122.974;2022-11-18T15:11:37;19.80;45.70
49373;DHT22;44113;38.408;-122.974;2022-11-18T15:14:03;19.70;45.60
49373;DHT22;44113;38.408;-122.974;2022-11-18T15:16:31;19.70;45.60
49373;DHT22;44113;38.408;-122.974;2022-11-18T15:19:00;19.60;45.80
49373;DHT22;44113;38.408;-122.974;2022-11-18T15:21:29;19.60;45.70
49373;DHT22;44113;38.408;-122.974;2022-11-18T15:23:55;19.60;45.80
49373;DHT22;44113;38.408;-122.974;2022-11-18T15:28:52;19.60;45.60
49373;DHT22;44113;38.408;-122.974;2022-11-18T15:31:19;19.60;45.60
49373;DHT22;44113;38.408;-122.974;2022-11-18T15:33:48;19.60;45.60
49373;DHT22;44113;38.408;-122.974;2022-11-18T15:36:21;19.60;45.60
49373;DHT22;44113;38.408;-122.974;2022-11-18T15:38:48;19.60;45.60
49373;DHT22;44113;38.408;-122.974;2022-11-18T15:41:20;19.60;45.50
49373;DHT22;44113;38.408;-122.974;2022-11-18T15:43:48;19.50;45.50
49373;DHT22;44113;38.408;-122.974;2022-11-18T15:46:18;19.50;45.60
49373;DHT22;44113;38.408;-122.974;2022-11-18T15:48:45;19.40;45.60
49373;DHT22;44113;38.408;-122.974;2022-11-18T15:51:13;19.40;45.70
49373;DHT22;44113;38.408;-122.974;2022-11-18T15:53:40;19.40;45.60
49373;DHT22;44113;38.408;-122.974;2022-11-18T15:58:58;19.40;45.50
49373;DHT22;44113;38.408;-122.974;2022-11-18T16:01:27;19.40;45.50
49373;DHT22;44113;38.408;-122.974;2022-11-18T16:03:54;19.40;45.60
49373;DHT22;44113;38.408;-122.974;2022-11-18T16:06:22;19.40;45.50
49373;DHT22;44113;38.408;-122.974;2022-11-18T16:08:50;19.40;45.50
49373;DHT22;44113;38.408;-122.974;2022-11-18T16:11:17;19.40;45.50
49373;DHT22;44113;38.408;-122.974;2022-11-18T16:14:11;19.40;45.50
49373;DHT22;44113;38.408;-122.974;2022-11-18T16:16:40;19.40;46.70
49373;DHT22;44113;38.408;-122.974;2022-11-18T16:19:09;19.40;48.80
49373;DHT22;44113;38.408;-122.974;2022-11-18T16:21:39;19.40;48.80
49373;DHT22;44113;38.408;-122.974;2022-11-18T16:24:09;19.40;48.40
49373;DHT22;44113;38.408;-122.974;2022-11-18T16:26:37;19.40;48.50
49373;DHT22;44113;38.408;-122.974;2022-11-18T16:29:05;19.40;48.50
49373;DHT22;44113;38.408;-122.974;2022-11-18T16:31:33;19.30;48.20
49373;DHT22;44113;38.408;-122.974;2022-11-18T16:36:37;19.30;48.20
49373;DHT22;44113;38.408;-122.974;2022-11-18T16:39:12;19.30;48.00
49373;DHT22;44113;38.408;-122.974;2022-11-18T16:41:40;19.30;47.90
49373;DHT22;44113;38.408;-122.974;2022-11-18T16:44:13;19.30;47.90
49373;DHT22;44113;38.408;-122.974;2022-11-18T16:46:44;19.30;48.10
49373;DHT22;44113;38.408;-122.974;2022-11-18T16:49:13;19.30;48.00
49373;DHT22;44113;38.408;-122.974;2022-11-18T16:51:41;19.20;48.00
49373;DHT22;44113;38.408;-122.974;2022-11-18T16:54:20;19.20;48.00
49373;DHT22;44113;38.408;-122.974;2022-11-18T16:56:53;19.30;48.10
49373;DHT22;44113;38.408;-122.974;2022-11-18T16:59:21;19.20;47.90
49373;DHT22;44113;38.408;-122.974;2022-11-18T17:01:49;19.20;48.00
49373;DHT22;44113;38.408;-122.974;2022-11-18T17:04:17;19.20;48.10
49373;DHT22;44113;38.408;-122.974;2022-11-18T17:06:44;19.20;47.90
49373;DHT22;44113;38.408;-122.974;2022-11-18T17:09:19;19.20;47.80
49373;DHT22;44113;38.408;-122.974;2022-11-18T17:11:46;19.20;47.80